Time;durP1;ratioP1;P1;durP2;ratioP2;P2;SDS_P1;SDS_P2;PMS_P1;PMS_P2;Temp;Humidity;BMP_temperature;BMP_pressure;BME280_temperature;BME280_humidity;BME280_pressure;Samples;Min_cycle;Max_cycle;Signal;HPM_P1;HPM_P2
2022/09/19 00:00:43;;;;;;;88.28;83.97;;;;;;;20.32;71.94;100510.59;5006961;28;104007;-55
2022/09/19 00:03:10;;;;;;;76.40;72.70;;;;;;;20.32;72.10;100518.88;5015220;28;102271;-55
2022/09/19 00:05:40;;;;;;;79.20;75.38;;;;;;;20.32;71.99;100515.31;5015856;28;102190;-55
2022/09/19 00:08:07;;;;;;;75.70;72.03;;;;;;;20.31;72.01;100520.03;5012314;28;102558;-55
2022/09/19 00:10:39;;;;;;;69.78;66.40;;;;;;;20.32;71.97;100527.16;4995172;28;104026;-55
2022/09/19 00:13:07;;;;;;;66.18;63.00;;;;;;;20.32;71.99;100529.13;5012382;28;102243;-55
2022/09/19 00:15:36;;;;;;;78.07;74.22;;;;;;;20.31;72.08;100528.31;5012105;28;102363;-55
2022/09/19 00:18:03;;;;;;;83.40;79.32;;;;;;;20.31;71.99;100531.09;5015387;28;102034;-54
2022/09/19 00:20:30;;;;;;;85.07;80.95;;;;;;;20.31;71.79;100536.63;4997649;28;103887;-55
2022/09/19 00:25:57;;;;;;;75.35;71.68;;;;;;;20.31;71.91;100524.75;5008840;28;102431;-55
2022/09/19 00:28:27;;;;;;;78.50;74.68;;;;;;;20.30;72.07;100535.00;5015187;28;102115;-55
2022/09/19 00:30:54;;;;;;;83.13;79.07;;;;;;;20.30;72.06;100536.94;5015196;28;104045;-55
2022/09/19 00:33:21;;;;;;;69.63;66.25;;;;;;;20.31;71.97;100535.81;5013558;28;102389;-55
2022/09/19 00:35:54;;;;;;;71.82;68.20;;;;;;;20.30;71.97;100537.78;5014595;28;102446;-55
2022/09/19 00:38:22;;;;;;;63.67;60.55;;;;;;;20.30;72.04;100540.53;5012149;28;102198;-55
2022/09/19 00:40:49;;;;;;;57.97;55.15;;;;;;;20.30;72.27;100539.72;5014929;28;104161;-56
2022/09/19 00:43:17;;;;;;;58.75;55.90;;;;;;;20.29;71.77;100538.91;5014947;28;101990;-56
2022/09/19 00:45:44;;;;;;;78.45;74.63;;;;;;;20.30;72.19;100535.00;5011689;28;102190;-55
2022/09/19 00:48:13;;;;;;;83.63;79.57;;;;;;;20.29;72.05;100527.84;5012023;28;102575;-55
2022/09/19 00:50:39;;;;;;;;;;;;;;;20.29;72.07;100532.56;5014854;28;103900;-54
2022/09/19 00:53:09;;;;;;;59.53;56.63;;;;;;;20.29;72.05;100538.91;5015620;28;102015;-54
2022/09/19 00:55:39;;;;;;;75.35;71.72;;;;;;;20.29;71.91;100543.63;5014823;28;102254;-55
2022/09/19 00:58:07;;;;;;;;;;;;;;;20.29;72.05;100544.44;5015670;28;102593;-55
2022/09/19 01:00:34;;;;;;;58.58;55.75;;;;;;;20.28;71.92;100542.81;5010470;28;103966;-55
2022/09/19 01:03:01;;;;;;;50.75;48.30;;;;;;;20.28;72.10;100547.53;5014815;28;102550;-55
2022/09/19 01:05:42;;;;;;;70.50;67.07;;;;;;;20.28;72.23;100547.53;5003224;28;102259;-55
2022/09/19 01:08:44;;;;;;;68.38;65.07;;;;;;;20.28;72.05;100553.88;4998354;28;102667;-54
2022/09/19 01:11:44;;;;;;;71.85;68.32;;;;;;;20.27;72.18;100563.31;5011751;28;103987;-55
2022/09/19 01:14:25;;;;;;;53.67;51.08;;;;;;;20.27;72.01;100563.31;5014454;28;102117;-55
2022/09/19 01:16:57;;;;;;;46.50;44.22;;;;;;;20.27;72.12;100574.38;5014800;28;102237;-54
2022/09/19 01:19:39;;;;;;;45.88;43.63;;;;;;;20.26;72.07;100572.75;5005288;28;102374;-54
2022/09/19 01:22:13;;;;;;;46.13;43.67;;;;;;;20.27;72.34;100563.31;4996242;28;103938;-56
2022/09/19 01:24:55;;;;;;;50.20;47.75;;;;;;;20.27;72.17;100570.81;4997876;28;102984;-55
2022/09/19 01:27:52;;;;;;;51.65;49.13;;;;;;;20.27;72.20;100574.38;5001958;28;102008;-55
2022/09/19 01:30:20;;;;;;;56.92;54.17;;;;;;;20.26;72.09;100569.19;4997125;28;102207;-56
2022/09/19 01:32:53;;;;;;;53.13;50.55;;;;;;;20.27;71.92;100568.03;5014107;28;104085;-55
2022/09/19 01:35:27;;;;;;;49.22;46.67;;;;;;;20.26;72.04;100561.69;5014236;28;102306;-55
2022/09/19 01:38:03;;;;;;;53.15;50.55;;;;;;;20.26;72.11;100569.97;4983107;28;102477;-55
2022/09/19 01:40:32;;;;;;;50.03;47.60;;;;;;;20.26;72.08;100567.22;4995981;28;102442;-55
2022/09/19 01:42:59;;;;;;;54.97;52.22;;;;;;;20.25;72.04;100571.13;4989315;28;103976;-56
2022/09/19 01:45:31;;;;;;;56.47;53.72;;;;;;;20.26;72.17;100572.75;4997289;28;102086;-55
2022/09/19 01:48:05;;;;;;;47.22;44.95;;;;;;;20.26;71.83;100572.75;4993647;28;102090;-55
2022/09/19 01:50:46;;;;;;;48.60;46.25;;;;;;;20.26;72.12;100567.22;4979176;28;101898;-54
2022/09/19 01:53:27;;;;;;;45.33;43.15;;;;;;;20.25;71.96;100565.59;4976784;28;108327;-53
2022/09/19 01:56:02;;;;;;;47.58;45.20;;;;;;;20.25;72.39;100571.13;4989586;28;102323;-55
2022/09/19 01:58:40;;;;;;;47.58;45.15;;;;;;;20.25;72.07;100576.66;4990273;28;101976;-55
2022/09/19 02:01:18;;;;;;;52.17;49.63;;;;;;;20.25;72.61;100582.19;4987116;28;102146;-55
2022/09/19 02:03:49;;;;;;;40.87;38.87;;;;;;;20.24;72.10;100580.59;4994033;28;103893;-56
2022/09/19 02:06:23;;;;;;;43.55;41.42;;;;;;;20.24;72.27;100585.31;4986547;28;102398;-55
2022/09/19 02:08:59;;;;;;;47.38;45.05;;;;;;;20.26;72.07;100583.00;4977287;28;101981;-56
2022/09/19 02:11:27;;;;;;;41.83;39.75;;;;;;;20.25;72.06;100576.66;4978199;28;102130;-57
2022/09/19 02:13:58;;;;;;;41.28;39.25;;;;;;;20.24;71.92;100585.31;4973969;28;103952;-54
2022/09/19 02:16:31;;;;;;;40.40;38.45;;;;;;;20.24;71.93;100588.06;4969003;28;101938;-56
2022/09/19 02:18:59;;;;;;;41.00;39.00;;;;;;;20.25;72.20;100598.78;4973262;28;102433;-55
2022/09/19 02:21:36;;;;;;;45.13;42.90;;;;;;;20.25;72.04;100598.78;4986088;28;102313;-55
2022/09/19 02:24:09;;;;;;;40.47;38.45;;;;;;;20.24;71.94;100594.41;4978504;28;103944;-55
2022/09/19 02:26:37;;;;;;;40.85;38.88;;;;;;;20.24;71.96;100597.16;4964176;28;102050;-55
2022/09/19 02:29:06;;;;;;;37.50;35.72;;;;;;;20.24;71.92;100605.44;4971151;28;102248;-54
2022/09/19 02:31:35;;;;;;;52.22;49.70;;;;;;;20.23;71.98;100595.56;4978609;28;102507;-55
2022/09/19 02:34:05;;;;;;;44.42;42.28;;;;;;;20.22;72.08;100604.97;4975929;28;103909;-55
2022/09/19 02:36:40;;;;;;;43.95;41.83;;;;;;;20.23;71.83;100614.91;4984772;28;102238;-56
2022/09/19 02:39:15;;;;;;;46.78;44.47;;;;;;;20.23;72.08;100622.34;5016795;28;102519;-55
2022/09/19 02:41:52;;;;;;;48.00;45.65;;;;;;;20.22;72.32;100624.31;5016076;28;102271;-54
2022/09/19 02:44:24;;;;;;;49.45;47.05;;;;;;;20.22;71.80;100621.53;4987092;28;103887;-56
2022/09/19 02:47:01;;;;;;;42.25;40.00;;;;;;;20.23;71.65;100628.72;4997294;28;101845;-55
2022/09/19 02:49:38;;;;;;;39.08;37.22;;;;;;;20.22;72.10;100627.06;4996154;28;102333;-55
2022/09/19 02:52:12;;;;;;;45.17;42.92;;;;;;;20.22;71.85;100620.75;4997740;28;102293;-55
2022/09/19 02:54:42;;;;;;;46.25;43.95;;;;;;;20.21;71.72;100613.59;5002305;28;104074;-54
2022/09/19 02:57:13;;;;;;;45.33;43.15;;;;;;;20.22;71.71;100617.97;5009337;28;101989;-56
2022/09/19 02:59:43;;;;;;;54.10;51.45;;;;;;;20.20;71.86;100623.84;5016101;28;103488;-55
2022/09/19 03:02:17;;;;;;;35.88;34.17;;;;;;;20.21;72.27;100633.75;5014368;28;102223;-55
2022/09/19 03:04:49;;;;;;;37.67;35.88;;;;;;;20.21;72.24;100641.25;5013635;28;104732;-55
2022/09/19 03:07:23;;;;;;;82.95;78.80;;;;;;;20.20;72.07;100634.91;5006986;28;102446;-55
2022/09/19 03:09:56;;;;;;;90.95;86.55;;;;;;;20.20;72.43;100629.38;5013022;28;102478;-54
2022/09/19 03:12:35;;;;;;;86.53;82.35;;;;;;;20.20;72.31;100634.91;5004360;28;102025;-55
2022/09/19 03:15:05;;;;;;;94.80;90.20;;;;;;;20.21;72.47;100647.56;5015569;28;103932;-55
2022/09/19 03:17:38;;;;;;;93.22;88.63;;;;;;;20.21;72.06;100652.28;5016173;28;102207;-55
2022/09/19 03:20:11;;;;;;;92.93;88.35;;;;;;;20.19;72.16;100649.84;5016289;28;102765;-55
2022/09/19 03:22:39;;;;;;;90.03;85.60;;;;;;;20.20;72.12;100662.53;5014057;28;102324;-54
2022/09/19 03:25:07;;;;;;;91.75;87.30;;;;;;;20.20;71.92;100661.75;5015688;28;104098;-55
2022/09/19 03:27:36;;;;;;;88.43;84.10;;;;;;;20.20;71.94;100668.06;5015879;28;102001;-55
2022/09/19 03:30:06;;;;;;;90.35;85.93;;;;;;;20.20;72.38;100664.50;5008645;28;102263;-55
2022/09/19 03:32:34;;;;;;;99.32;94.50;;;;;;;20.20;72.18;100668.06;5015681;28;102529;-55
2022/09/19 03:35:02;;;;;;;92.70;88.15;;;;;;;20.18;71.90;100664.81;5009675;28;104014;-54
2022/09/19 03:37:29;;;;;;;94.75;90.15;;;;;;;20.18;72.19;100673.09;4996657;28;102157;-54
2022/09/19 03:39:56;;;;;;;89.07;84.72;;;;;;;20.20;71.84;100676.34;5011061;28;102476;-54
2022/09/19 03:42:23;;;;;;;88.35;84.03;;;;;;;20.19;71.76;100680.25;5016960;28;102334;-55
2022/09/19 03:44:49;;;;;;;98.93;94.07;;;;;;;20.19;72.15;100683.00;5015215;28;105073;-55
2022/09/19 03:47:16;;;;;;;82.88;78.85;;;;;;;20.19;71.88;100683.00;5016527;28;101983;-54
2022/09/19 03:49:44;;;;;;;97.30;92.40;;;;;;;20.19;72.00;100691.28;5004694;28;102389;-54
2022/09/19 03:52:11;;;;;;;90.57;86.15;;;;;;;20.19;72.20;100696.03;5003087;28;102103;-55
2022/09/19 03:54:38;;;;;;;96.63;91.93;;;;;;;20.19;71.76;100684.97;5011917;28;103734;-55
2022/09/19 03:57:04;;;;;;;98.10;93.32;;;;;;;20.19;72.00;100696.81;5003741;28;102399;-54
2022/09/19 03:59:39;;;;;;;86.50;82.30;;;;;;;20.18;72.03;100697.97;5006162;28;102236;-55
2022/09/19 04:02:06;;;;;;;98.00;93.28;;;;;;;20.18;71.77;100697.97;5016466;28;102176;-54
2022/09/19 04:04:33;;;;;;;94.05;89.45;;;;;;;20.18;72.27;100697.97;5014735;28;103860;-55
2022/09/19 04:07:02;;;;;;;98.40;93.60;;;;;;;20.17;71.79;100699.13;5014703;28;102167;-55
2022/09/19 04:09:29;;;;;;;90.30;85.93;;;;;;;20.18;72.08;100697.97;5014909;28;102107;-54
2022/09/19 04:11:56;;;;;;;96.30;91.63;;;;;;;20.19;71.88;100698.78;5015379;28;102193;-56
2022/09/19 04:14:23;;;;;;;92.35;87.85;;;;;;;20.16;71.81;100695.56;5003879;28;103912;-55
2022/09/19 04:16:50;;;;;;;94.10;89.53;;;;;;;20.17;71.75;100690.84;5015129;28;102192;-55
2022/09/19 04:19:17;;;;;;;93.57;89.03;;;;;;;20.17;72.01;100701.91;5011219;28;104709;-55
2022/09/19 04:21:44;;;;;;;100.32;95.43;;;;;;;20.18;72.17;100703.50;4996933;28;102177;-54
2022/09/19 04:24:12;;;;;;;93.22;88.70;;;;;;;20.16;71.83;100708.56;5007015;28;103981;-55
2022/09/19 04:26:43;;;;;;;89.68;85.32;;;;;;;20.17;71.85;100712.94;5015229;28;102302;-55
2022/09/19 04:29:10;;;;;;;97.75;92.95;;;;;;;20.18;71.81;100720.09;5012495;28;102286;-55
2022/09/19 04:31:39;;;;;;;89.68;85.32;;;;;;;20.17;71.96;100721.25;5016092;28;102124;-55
2022/09/19 04:34:06;;;;;;;99.07;94.25;;;;;;;20.17;71.89;100729.53;5008612;28;103828;-55
2022/09/19 04:36:33;;;;;;;93.53;89.00;;;;;;;20.17;71.68;100729.53;4995473;28;101935;-55
2022/09/19 04:39:03;;;;;;;96.43;91.70;;;;;;;20.17;71.89;100735.06;5006634;28;102317;-55
2022/09/19 04:41:32;;;;;;;91.05;86.63;;;;;;;20.17;71.74;100746.09;5015240;28;102191;-55
2022/09/19 04:43:59;;;;;;;94.78;90.15;;;;;;;20.17;71.86;100735.06;5011835;28;104024;-55
2022/09/19 04:46:25;;;;;;;94.95;90.30;;;;;;;20.17;71.87;100741.38;4997607;28;102367;-55
2022/09/19 04:48:52;;;;;;;94.82;90.18;;;;;;;20.16;71.96;100738.97;4995215;28;102307;-55
2022/09/19 04:51:19;;;;;;;91.93;87.43;;;;;;;20.16;71.96;100734.25;5007935;28;102145;-55
2022/09/19 04:53:45;;;;;;;98.13;93.35;;;;;;;20.17;71.95;100730.31;5009785;28;103995;-55
2022/09/19 04:56:12;;;;;;;99.05;94.20;;;;;;;20.18;72.15;100731.13;5015284;28;102163;-55
2022/09/19 04:58:40;;;;;;;99.57;94.45;;;;;;;20.18;72.56;100736.66;5000069;28;102555;-55
2022/09/19 05:01:08;;;;;;;103.88;98.85;;;;;;;20.19;72.59;100741.03;5015503;28;102190;-55
2022/09/19 05:03:35;;;;;;;98.90;94.10;;;;;;;20.20;72.54;100742.69;5013716;28;103888;-55
2022/09/19 05:06:02;;;;;;;97.78;93.03;;;;;;;20.20;72.78;100742.69;5014431;28;102465;-55
2022/09/19 05:08:30;;;;;;;97.60;92.85;;;;;;;20.22;72.85;100754.19;5014017;28;102602;-55
2022/09/19 05:10:59;;;;;;;94.30;89.70;;;;;;;20.22;72.87;100762.47;5004895;28;102922;-54
2022/09/19 05:13:28;;;;;;;97.75;93.03;;;;;;;20.23;73.26;100755.81;5001777;28;104646;-55
2022/09/19 05:15:57;;;;;;;98.25;93.43;;;;;;;20.25;73.10;100769.28;5014519;28;102343;-54
2022/09/19 05:18:24;;;;;;;103.05;97.97;;;;;;;20.26;73.03;100766.19;5015247;28;102458;-54
2022/09/19 05:20:52;;;;;;;97.60;92.82;;;;;;;20.28;73.20;100763.09;5016683;28;102564;-54
2022/09/19 05:23:19;;;;;;;105.80;100.63;;;;;;;20.29;73.17;100768.28;5003938;28;103640;-55
2022/09/19 05:25:46;;;;;;;106.18;101.00;;;;;;;20.32;73.09;100769.56;5012334;28;102117;-56
2022/09/19 05:28:12;;;;;;;102.20;97.20;;;;;;;20.32;73.19;100775.91;5000800;28;102345;-55
2022/09/19 05:30:47;;;;;;;95.95;91.25;;;;;;;20.33;73.06;100766.47;5011913;28;102256;-54
2022/09/19 05:33:16;;;;;;;97.15;92.25;;;;;;;20.36;73.20;100771.31;4999195;28;109022;-54
2022/09/19 05:35:42;;;;;;;97.53;92.80;;;;;;;20.36;73.19;100770.50;5013728;28;102338;-55
2022/09/19 05:38:08;;;;;;;100.10;95.18;;;;;;;20.36;73.14;100776.84;5012152;28;104390;-54
2022/09/19 05:40:36;;;;;;;100.93;95.97;;;;;;;20.37;73.19;100783.97;5016601;28;102720;-55
2022/09/19 05:43:05;;;;;;;111.90;106.43;;;;;;;20.39;73.18;100787.22;5016038;28;104530;-55
2022/09/19 05:45:32;;;;;;;106.13;100.93;;;;;;;20.38;73.04;100791.16;4999351;28;102184;-54
2022/09/19 05:47:59;;;;;;;105.95;100.50;;;;;;;20.39;73.16;100795.53;5015208;28;102339;-54
2022/09/19 05:50:28;;;;;;;97.05;92.30;;;;;;;20.40;73.04;100799.09;5018644;28;102398;-54
2022/09/19 05:55:40;;;;;;;96.15;91.45;;;;;;;20.40;72.84;100794.38;5006428;28;102487;-55
2022/09/19 05:58:08;;;;;;;102.85;97.82;;;;;;;20.42;72.92;100796.00;5014314;28;102709;-55
2022/09/19 06:00:37;;;;;;;101.28;96.30;;;;;;;20.42;73.03;100801.53;5017433;28;102516;-54
2022/09/19 06:03:05;;;;;;;98.00;93.20;;;;;;;20.40;72.86;100797.13;5017225;28;104101;-55
2022/09/19 06:05:40;;;;;;;99.63;94.70;;;;;;;20.40;72.99;100805.44;5017942;28;101928;-54
2022/09/19 06:08:07;;;;;;;102.18;97.22;;;;;;;20.40;72.95;100802.66;5017368;28;102435;-54
2022/09/19 06:10:36;;;;;;;96.40;91.68;;;;;;;20.42;72.67;100796.00;5018542;28;102169;-55
2022/09/19 06:13:03;;;;;;;104.18;99.00;;;;;;;20.41;72.64;100797.94;5016948;28;104164;-55
2022/09/19 06:15:30;;;;;;;104.95;99.80;;;;;;;20.43;72.43;100805.91;5016569;28;102049;-55
2022/09/19 06:17:57;;;;;;;90.43;86.00;;;;;;;20.44;72.59;100804.75;4999057;28;102249;-55
2022/09/19 06:20:24;;;;;;;96.60;91.88;;;;;;;20.43;72.61;100814.22;5007831;28;102625;-55
2022/09/19 06:22:57;;;;;;;99.28;94.45;;;;;;;20.45;72.54;100812.75;5013639;28;104085;-55
2022/09/19 06:25:25;;;;;;;99.43;94.55;;;;;;;20.45;72.55;100811.91;5016685;28;104756;-55
2022/09/19 06:27:55;;;;;;;96.18;91.47;;;;;;;20.46;72.45;100819.06;5005222;28;102223;-54
2022/09/19 06:30:22;;;;;;;101.28;96.25;;;;;;;20.47;72.44;100823.44;5010914;28;102758;-55
2022/09/19 06:32:50;;;;;;;94.45;89.85;;;;;;;20.48;72.50;100827.81;5002130;28;103985;-55
2022/09/19 06:35:17;;;;;;;95.88;91.18;;;;;;;20.49;72.48;100832.22;5015051;28;102055;-55
2022/09/19 06:37:44;;;;;;;96.28;91.55;;;;;;;20.50;72.38;100831.09;5014152;28;103512;-55
2022/09/19 06:40:12;;;;;;;105.88;100.72;;;;;;;20.50;72.28;100831.09;5014992;28;102316;-55
2022/09/19 06:42:40;;;;;;;92.43;87.88;;;;;;;20.50;72.31;100842.97;5005259;28;104153;-55
2022/09/19 06:45:07;;;;;;;95.47;90.82;;;;;;;20.51;72.37;100843.78;5013764;28;102365;-56
2022/09/19 06:47:35;;;;;;;93.05;88.53;;;;;;;20.53;72.29;100835.97;5012599;28;102317;-55
2022/09/19 06:50:02;;;;;;;92.35;87.80;;;;;;;20.53;72.40;100844.25;5015577;28;102807;-55
2022/09/19 06:52:29;;;;;;;95.32;90.72;;;;;;;20.53;72.34;100844.25;5012843;28;103868;-55
2022/09/19 06:54:58;;;;;;;100.22;95.38;;;;;;;20.54;72.18;100854.16;5013767;28;102300;-55
2022/09/19 06:57:26;;;;;;;92.38;87.90;;;;;;;20.54;72.16;100848.63;5014263;28;102358;-55
2022/09/19 06:59:52;;;;;;;86.78;82.50;;;;;;;20.55;72.11;100853.00;5014999;28;102322;-54
2022/09/19 07:02:20;;;;;;;89.53;85.20;;;;;;;20.55;72.15;100844.72;5011284;28;104780;-54
2022/09/19 07:04:48;;;;;;;93.15;88.63;;;;;;;20.56;71.98;100836.09;5014361;28;102093;-55
2022/09/19 07:07:15;;;;;;;95.97;91.32;;;;;;;20.57;72.02;100836.91;5014143;28;102407;-56
2022/09/19 07:09:44;;;;;;;98.28;93.40;;;;;;;20.58;72.03;100844.84;5013691;28;102637;-55
2022/09/19 07:12:11;;;;;;;99.70;94.85;;;;;;;20.59;72.03;100849.25;5009657;28;103851;-56
2022/09/19 07:14:41;;;;;;;91.25;86.82;;;;;;;20.61;71.88;100854.44;5012897;28;102472;-54
2022/09/19 07:17:08;;;;;;;92.43;87.90;;;;;;;20.62;72.04;100856.06;5012913;28;102070;-54
2022/09/19 07:19:36;;;;;;;94.65;90.03;;;;;;;20.64;71.91;100853.78;5006278;28;103876;-55
2022/09/19 07:22:05;;;;;;;89.78;85.38;;;;;;;20.64;nan;100860.13;4993811;28;103837;-55
2022/09/19 07:24:31;;;;;;;97.65;92.88;;;;;;;20.66;71.87;100862.53;5013128;28;102408;-55
2022/09/19 07:26:58;;;;;;;93.63;89.05;;;;;;;20.66;71.77;100868.06;5010192;28;102985;-55
2022/09/19 07:29:24;;;;;;;93.18;88.63;;;;;;;20.67;71.81;100858.63;5014055;28;102222;-56
2022/09/19 07:31:52;;;;;;;101.55;96.43;;;;;;;20.69;71.85;100861.88;5012005;28;104276;-56
2022/09/19 07:34:19;;;;;;;93.20;88.68;;;;;;;20.69;71.80;100858.28;5013823;28;102564;-56
2022/09/19 07:36:46;;;;;;;94.30;89.70;;;;;;;20.71;71.83;100861.53;5012705;28;102422;-55
2022/09/19 07:39:12;;;;;;;91.45;87.00;;;;;;;20.71;71.82;100865.13;5013864;28;102637;-54
2022/09/19 07:41:39;;;;;;;96.40;91.68;;;;;;;20.73;71.81;100864.75;5013318;28;104325;-56
2022/09/19 07:44:05;;;;;;;94.10;89.53;;;;;;;20.72;71.75;100866.72;5013143;28;102657;-55
2022/09/19 07:46:32;;;;;;;84.85;80.70;;;;;;;20.73;71.79;100860.03;5012142;28;102202;-54
2022/09/19 07:49:00;;;;;;;93.60;89.05;;;;;;;20.74;71.74;100861.69;5012387;28;102648;-55
2022/09/19 07:51:30;;;;;;;85.70;81.45;;;;;;;20.75;71.88;100860.53;5012368;28;103792;-54
2022/09/19 07:53:57;;;;;;;97.60;92.80;;;;;;;20.76;71.72;100856.59;5009272;28;101999;-55
2022/09/19 07:56:24;;;;;;;89.15;84.78;;;;;;;20.76;71.79;100861.34;5012060;28;102335;-56
2022/09/19 07:58:52;;;;;;;90.78;86.38;;;;;;;20.76;71.72;100864.09;5013002;28;102138;-55
2022/09/19 08:01:19;;;;;;;90.50;86.03;;;;;;;20.78;71.80;100870.91;5011105;28;104122;-57
2022/09/19 08:03:46;;;;;;;94.10;89.50;;;;;;;20.78;71.74;100870.91;5012248;28;102008;-55
2022/09/19 08:06:15;;;;;;;87.82;83.55;;;;;;;20.79;71.50;100866.19;5013922;28;102239;-54
2022/09/19 08:08:41;;;;;;;94.00;89.43;;;;;;;20.81;71.54;100866.69;5013538;28;102478;-54
2022/09/19 08:11:09;;;;;;;89.15;84.85;;;;;;;20.81;71.43;100870.25;5013928;28;103973;-54
2022/09/19 08:13:36;;;;;;;80.57;76.63;;;;;;;20.82;71.40;100871.88;5014270;28;102447;-55
2022/09/19 08:16:02;;;;;;;83.38;79.25;;;;;;;20.83;71.24;100873.47;5009568;28;104931;-55
2022/09/19 08:18:30;;;;;;;83.78;79.60;;;;;;;20.84;71.05;100868.75;5013362;28;102331;-55
2022/09/19 08:20:56;;;;;;;80.80;76.95;;;;;;;20.83;70.91;100862.41;5009739;28;103917;-55
2022/09/19 08:23:24;;;;;;;74.30;70.70;;;;;;;20.84;70.89;100864.06;5005572;28;102367;-54
2022/09/19 08:25:53;;;;;;;71.93;68.33;;;;;;;20.85;71.02;100862.09;5010625;28;102476;-54
2022/09/19 08:28:20;;;;;;;72.93;69.38;;;;;;;20.85;71.07;100849.06;5013588;28;102371;-55
2022/09/19 08:30:47;;;;;;;71.85;68.32;;;;;;;20.87;70.93;100851.47;5009632;28;104173;-54
2022/09/19 08:33:14;;;;;;;73.93;70.32;;;;;;;20.86;70.96;100845.16;5010967;28;102318;-54
2022/09/19 08:35:42;;;;;;;70.05;66.65;;;;;;;20.87;70.74;100832.91;5002841;28;102031;-54
2022/09/19 08:38:11;;;;;;;74.10;70.55;;;;;;;20.87;70.92;100832.13;5013909;28;102710;-55
2022/09/19 08:40:52;;;;;;;73.57;70.00;;;;;;;20.87;70.44;100832.91;5015298;28;103948;-54
2022/09/19 08:43:26;;;;;;;69.60;66.25;;;;;;;20.87;70.43;100827.38;5013655;28;102470;-55
2022/09/19 08:46:06;;;;;;;66.03;62.80;;;;;;;20.87;70.59;100832.91;5014606;28;102066;-55
2022/09/19 08:48:44;;;;;;;64.07;60.95;;;;;;;20.90;70.75;100825.09;5007253;28;102052;-55
2022/09/19 08:51:17;;;;;;;60.75;57.83;;;;;;;20.87;69.91;100821.84;5013368;28;104017;-55
2022/09/19 08:53:47;;;;;;;64.60;61.47;;;;;;;20.89;69.94;100827.06;5013697;28;102198;-54
2022/09/19 08:56:18;;;;;;;62.38;59.35;;;;;;;20.90;69.54;100833.41;5016305;28;102627;-55
2022/09/19 08:58:47;;;;;;;67.65;64.38;;;;;;;20.88;69.99;100837.34;5010859;28;103372;-55
2022/09/19 09:01:15;;;;;;;62.20;59.22;;;;;;;20.88;70.13;100833.75;5015276;28;103895;-55
2022/09/19 09:03:51;;;;;;;66.13;62.93;;;;;;;20.87;70.16;100832.91;5013089;28;103415;-55
2022/09/19 09:06:28;;;;;;;61.28;58.30;;;;;;;20.88;70.47;100831.00;5017774;28;102431;-54
2022/09/19 09:09:03;;;;;;;68.05;64.75;;;;;;;20.87;70.48;100840.41;5014692;28;104826;-54
2022/09/19 09:11:40;;;;;;;68.95;65.63;;;;;;;20.87;70.60;100835.69;5012726;28;103962;-54
2022/09/19 09:14:21;;;;;;;70.13;66.72;;;;;;;20.88;70.82;100842.06;5009483;28;103027;-55
2022/09/19 09:17:05;;;;;;;68.28;64.97;;;;;;;20.87;70.66;100834.88;5013071;28;102697;-55
2022/09/19 09:19:59;;;;;;;67.03;63.78;;;;;;;20.88;70.20;100836.53;5014549;28;102857;-55
2022/09/19 09:22:30;;;;;;;61.00;58.05;;;;;;;20.90;70.02;100838.94;5015509;28;103704;-55
2022/09/19 09:25:04;;;;;;;62.72;59.70;;;;;;;20.91;69.47;100846.09;5006954;28;103648;-54
2022/09/19 09:27:39;;;;;;;55.30;52.63;;;;;;;20.92;69.06;100833.88;5014983;28;102428;-55
2022/09/19 09:30:16;;;;;;;58.90;56.05;;;;;;;20.90;69.24;100845.28;4998699;28;102202;-55
2022/09/19 09:32:47;;;;;;;60.25;57.33;;;;;;;20.90;69.56;100838.94;5011015;28;104208;-55
2022/09/19 09:35:26;;;;;;;63.03;60.00;;;;;;;20.90;69.79;100844.47;5016414;28;102381;-54
2022/09/19 09:38:00;;;;;;;63.72;60.65;;;;;;;20.87;69.69;100841.22;5016586;28;102528;-54
2022/09/19 09:43:36;;;;;;;50.35;47.95;;;;;;;20.87;68.90;100840.41;5007865;28;103844;-54
2022/09/19 09:46:08;;;;;;;47.53;45.20;;;;;;;20.85;68.70;100826.94;5018235;28;102077;-54
2022/09/19 09:48:38;;;;;;;52.40;49.72;;;;;;;20.85;68.45;100831.66;5017956;28;102020;-55
2022/09/19 09:51:15;;;;;;;51.63;49.15;;;;;;;20.83;68.27;100829.22;5018846;28;102126;-55
2022/09/19 09:53:57;;;;;;;50.97;48.53;;;;;;;20.83;68.45;100837.50;5015150;28;103926;-54
2022/09/19 09:56:32;;;;;;;39.75;37.85;;;;;;;20.82;68.85;100844.19;5012456;28;102423;-55
2022/09/19 10:05:26;;;;;;;37.22;35.42;;;;;;;20.81;68.73;100842.59;5016661;28;104017;-55
2022/09/19 10:08:02;;;;;;;40.22;38.30;;;;;;;20.80;68.90;100840.94;5017599;28;101913;-55
2022/09/19 10:10:32;;;;;;;40.45;38.35;;;;;;;20.79;68.70;100850.41;5015772;28;102476;-54
2022/09/19 10:13:08;;;;;;;32.20;30.52;;;;;;;20.78;68.66;100848.78;5015379;28;102224;-54
2022/09/19 10:15:41;;;;;;;34.13;32.47;;;;;;;20.78;68.84;100842.47;5010422;28;104025;-54
2022/09/19 10:18:13;;;;;;;41.67;39.67;;;;;;;20.77;69.51;100847.19;5018017;28;102288;-55
2022/09/19 10:20:49;;;;;;;45.40;43.17;;;;;;;20.75;69.46;100849.47;5016968;28;102170;-54
2022/09/19 10:23:23;;;;;;;48.25;45.95;;;;;;;20.74;69.38;100839.56;5017393;28;102218;-54
2022/09/19 10:25:51;;;;;;;50.58;48.08;;;;;;;20.74;69.39;100842.31;5016207;28;103880;-55
2022/09/19 10:28:24;;;;;;;54.08;51.47;;;;;;;20.74;69.36;100844.28;5017514;28;101984;-54
2022/09/19 10:30:56;;;;;;;45.80;43.63;;;;;;;20.74;69.40;100841.50;5015188;28;102681;-55
2022/09/19 10:33:38;;;;;;;56.17;53.47;;;;;;;20.72;70.73;100841.84;5006960;28;102592;-55
2022/09/19 10:36:08;;;;;;;50.90;48.40;;;;;;;20.70;69.60;100835.84;5010405;28;103964;-55
2022/09/19 10:38:53;;;;;;;54.15;51.45;;;;;;;20.71;70.23;100836.66;5011895;28;102603;-55
2022/09/19 10:41:22;;;;;;;47.33;44.92;;;;;;;20.69;70.77;100836.97;5016127;28;102305;-54
2022/09/19 10:43:50;;;;;;;52.72;50.17;;;;;;;20.69;70.90;100839.75;5016464;28;102529;-55
2022/09/19 10:46:21;;;;;;;48.80;46.45;;;;;;;20.68;70.93;100835.38;5016023;28;103842;-55
2022/09/19 10:48:55;;;;;;;53.08;50.53;;;;;;;20.68;71.13;100838.13;5003849;28;102240;-54
2022/09/19 10:51:24;;;;;;;52.85;50.30;;;;;;;20.67;70.97;100831.00;4997198;28;102064;-54
2022/09/19 10:53:54;;;;;;;48.17;45.85;;;;;;;20.66;71.04;100839.59;5016480;28;102651;-55
2022/09/19 10:56:25;;;;;;;48.08;45.75;;;;;;;20.65;71.04;100836.03;5007079;28;103937;-54
2022/09/19 10:59:01;;;;;;;59.97;57.10;;;;;;;20.64;71.15;100834.41;5014580;28;102549;-55
2022/09/19 11:01:29;;;;;;;61.50;58.17;;;;;;;20.63;71.11;100833.63;5009579;28;102382;-54
2022/09/19 11:04:04;;;;;;;77.13;73.40;;;;;;;20.62;71.11;100823.69;5012295;28;102490;-55
2022/09/19 11:06:33;;;;;;;73.72;68.00;;;;;;;20.62;70.89;100817.34;5002763;28;103863;-55
2022/09/19 11:09:06;;;;;;;69.25;65.90;;;;;;;20.60;70.70;100825.19;5008911;28;102554;-54
2022/09/19 11:11:48;;;;;;;80.53;74.57;;;;;;;20.61;70.02;100815.72;5013670;28;102243;-53
2022/09/19 11:14:20;;;;;;;187.20;168.77;;;;;;;20.59;70.00;100806.94;5015759;28;102631;-55
2022/09/19 11:17:09;;;;;;;66.53;60.85;;;;;;;20.59;69.78;100805.03;5015184;28;104053;-55
2022/09/19 11:20:16;;;;;;;56.80;53.97;;;;;;;20.58;69.67;100805.34;5015094;28;103183;-55
2022/09/19 11:23:05;;;;;;;57.50;54.67;;;;;;;20.57;69.72;100801.78;5005231;28;102317;-55
2022/09/19 11:25:36;;;;;;;63.00;59.95;;;;;;;20.57;70.09;100809.25;5012546;28;102325;-55
2022/09/19 11:28:15;;;;;;;62.58;59.53;;;;;;;20.56;70.41;100804.88;5006389;28;103981;-55
2022/09/19 11:30:52;;;;;;;53.92;51.30;;;;;;;20.55;70.45;100811.53;5009978;28;102306;-54
2022/09/19 11:33:53;;;;;;;47.72;45.42;;;;;;;20.54;70.30;100801.63;5007778;28;101861;-55